createdAt,value
2019-04-28T00:01:30.968Z,85.39
2019-04-28T00:04:37.300Z,86.02
2019-04-28T00:07:44.901Z,85.43
2019-04-28T00:10:53.258Z,83.82
2019-04-28T00:14:01.916Z,84.03
2019-04-28T00:17:11.144Z,84.08
2019-04-28T00:20:24.089Z,83.81
2019-04-28T00:23:57.518Z,83.43
2019-04-28T00:27:06.118Z,85.44
2019-04-28T00:30:13.790Z,81.71
2019-04-28T00:33:20.341Z,84.46
2019-04-28T00:36:26.880Z,87.87
2019-04-28T00:39:33.320Z,88.60
2019-04-28T00:42:41.378Z,89.73
2019-04-28T00:45:48.073Z,90.00
2019-04-28T00:48:54.542Z,89.61
2019-04-28T00:52:03.073Z,88.66
2019-04-28T00:55:11.053Z,89.81
2019-04-28T00:58:17.581Z,86.85
2019-04-28T01:01:40.674Z,89.27
2019-04-28T01:08:01.218Z,87.31
2019-04-28T01:11:08.690Z,86.72
2019-04-28T01:14:15.188Z,87.00
2019-04-28T01:17:27.278Z,87.56
2019-04-28T01:20:34.167Z,88.62
2019-04-28T01:23:40.747Z,90.11
2019-04-28T01:26:50.740Z,88.02
2019-04-28T01:30:06.257Z,86.17
2019-04-28T01:33:21.659Z,89.04
2019-04-28T01:36:30.095Z,92.20
2019-04-28T01:39:36.429Z,88.52
2019-04-28T01:42:43.068Z,86.53
2019-04-28T01:45:50.248Z,90.03
2019-04-28T01:48:57.067Z,92.11
2019-04-28T01:52:05.771Z,90.98
2019-04-28T01:55:12.499Z,91.99
2019-04-28T01:58:20.501Z,92.38
2019-04-28T02:01:27.299Z,90.76
2019-04-28T02:04:33.847Z,90.53
2019-04-28T02:07:40.843Z,89.23
2019-04-28T02:10:47.568Z,88.44
2019-04-28T02:13:54.099Z,89.17
2019-04-28T02:17:00.696Z,89.39
2019-04-28T02:20:10.243Z,91.19
2019-04-28T02:23:24.847Z,88.59
2019-04-28T02:26:31.342Z,90.61
2019-04-28T02:29:41.417Z,89.14
2019-04-28T02:32:45.997Z,89.60
2019-04-28T02:35:52.582Z,88.32
2019-04-28T02:39:00.809Z,88.55
2019-04-28T02:42:10.925Z,87.67
2019-04-28T02:45:21.973Z,87.20
2019-04-28T02:48:31.045Z,87.95
2019-04-28T02:51:42.219Z,88.36
2019-04-28T02:54:50.713Z,89.58
2019-04-28T02:57:57.322Z,87.25
2019-04-28T03:01:18.530Z,86.40
2019-04-28T03:04:15.376Z,86.36
2019-04-28T03:07:22.038Z,88.14
2019-04-28T03:10:31.084Z,87.29
2019-04-28T03:13:37.572Z,85.20
2019-04-28T03:16:45.202Z,85.92
2019-04-28T03:19:52.074Z,86.71
2019-04-28T03:23:00.912Z,87.14
2019-04-28T03:26:26.353Z,83.95
2019-04-28T03:29:43.849Z,85.38
2019-04-28T03:32:59.434Z,86.20
2019-04-28T03:36:03.613Z,86.13
2019-04-28T03:39:11.069Z,84.05
2019-04-28T03:42:17.349Z,85.80
2019-04-28T03:45:30.674Z,86.36
2019-04-28T03:48:37.233Z,87.00
2019-04-28T03:51:44.274Z,85.97
2019-04-28T03:54:51.183Z,85.31
2019-04-28T03:57:57.714Z,85.93
2019-04-28T04:01:10.442Z,83.58
2019-04-28T04:04:15.851Z,85.80
2019-04-28T04:07:22.711Z,85.65
2019-04-28T04:11:00.501Z,87.42
2019-04-28T04:14:16.995Z,86.83
2019-04-28T04:17:35.492Z,85.65
2019-04-28T04:20:42.054Z,87.57
2019-04-28T04:23:50.961Z,86.27
2019-04-28T04:26:56.778Z,86.93
2019-04-28T04:30:05.317Z,86.29
2019-04-28T04:33:11.815Z,86.55
2019-04-28T04:36:20.753Z,84.90
2019-04-28T04:39:26.752Z,85.53
2019-04-28T04:42:33.244Z,86.40
2019-04-28T04:45:40.501Z,87.62
2019-04-28T04:48:47.550Z,84.18
2019-04-28T04:51:54.102Z,86.95
2019-04-28T04:55:01.664Z,85.99
2019-04-28T04:58:10.548Z,86.33
2019-04-28T05:01:41.382Z,86.72
2019-04-28T05:04:55.165Z,85.85
2019-04-28T05:08:01.939Z,84.24
2019-04-28T05:11:09.605Z,85.51
2019-04-28T05:14:19.643Z,82.95
2019-04-28T05:17:26.677Z,84.61
2019-04-28T05:20:33.488Z,82.58
2019-04-28T05:23:46.702Z,83.27
2019-04-28T05:26:53.139Z,84.07
2019-04-28T05:30:02.561Z,85.38
2019-04-28T05:33:07.720Z,86.39
2019-04-28T05:36:14.260Z,86.31
2019-04-28T05:39:20.892Z,85.95
2019-04-28T05:42:27.388Z,84.87
2019-04-28T05:45:33.859Z,85.12
2019-04-28T05:48:46.650Z,86.17
2019-04-28T05:51:54.921Z,85.16
2019-04-28T05:55:11.461Z,85.53
2019-04-28T05:58:32.528Z,83.37
2019-04-28T06:01:56.966Z,85.91
2019-04-28T06:05:04.899Z,87.41
2019-04-28T06:08:30.389Z,88.19
2019-04-28T06:11:39.762Z,86.59
2019-04-28T06:14:46.558Z,86.55
2019-04-28T06:17:53.071Z,86.42
2019-04-28T06:20:59.515Z,84.60
2019-04-28T06:24:07.787Z,87.02
2019-04-28T06:27:14.300Z,87.99
2019-04-28T06:30:23.195Z,87.00
2019-04-28T06:33:29.360Z,86.77
2019-04-28T06:36:35.861Z,86.21
2019-04-28T06:39:42.542Z,84.68
2019-04-28T06:42:50.709Z,84.99
2019-04-28T06:45:57.249Z,85.80
2019-04-28T06:49:04.050Z,86.09
2019-04-28T06:52:10.405Z,84.01
2019-04-28T06:55:16.861Z,84.87
2019-04-28T06:58:24.531Z,86.07
2019-04-28T07:01:31.019Z,85.12
2019-04-28T07:04:37.441Z,84.35
2019-04-28T07:07:47.040Z,85.19
2019-04-28T07:10:53.466Z,85.21
2019-04-28T07:14:00.051Z,84.96
2019-04-28T07:17:09.344Z,85.63
2019-04-28T07:20:40.485Z,86.90
2019-04-28T07:23:48.705Z,85.90
2019-04-28T07:26:55.225Z,85.54
2019-04-28T07:30:02.936Z,85.04
2019-04-28T07:33:09.544Z,85.86
2019-04-28T07:36:16.080Z,85.74
2019-04-28T07:39:22.684Z,86.02
2019-04-28T07:42:29.128Z,86.24
2019-04-28T07:45:35.709Z,83.59
2019-04-28T07:48:44.084Z,82.86
2019-04-28T07:52:04.259Z,82.92
2019-04-28T07:55:12.473Z,82.34
2019-04-28T07:58:18.983Z,83.57
2019-04-28T08:01:27.041Z,84.08
2019-04-28T08:04:33.605Z,83.01
2019-04-28T08:07:40.037Z,83.13
2019-04-28T08:10:47.086Z,83.10
2019-04-28T08:13:53.631Z,84.11
2019-04-28T08:17:00.121Z,81.57
2019-04-28T08:20:07.809Z,81.64
2019-04-28T08:23:14.359Z,80.18
2019-04-28T08:26:20.858Z,81.00
2019-04-28T08:29:27.527Z,82.55
2019-04-28T08:32:49.563Z,82.86
2019-04-28T08:35:56.050Z,82.98
2019-04-28T08:39:02.789Z,82.38
2019-04-28T08:42:11.224Z,83.59
2019-04-28T08:45:17.949Z,81.93
2019-04-28T08:48:25.334Z,83.11
2019-04-28T08:51:31.826Z,82.97
2019-04-28T08:54:38.667Z,83.19
2019-04-28T08:57:45.259Z,81.94
2019-04-28T09:00:52.849Z,82.52
2019-04-28T09:03:59.461Z,84.92
2019-04-28T09:07:06.509Z,86.49
2019-04-28T09:10:13.563Z,86.45
2019-04-28T09:13:20.029Z,86.90
2019-04-28T09:16:26.583Z,88.56
2019-04-28T09:19:33.151Z,89.81
2019-04-28T09:22:40.604Z,89.54
2019-04-28T09:25:47.086Z,91.84
2019-04-28T09:28:53.740Z,91.34
2019-04-28T09:32:02.871Z,90.98
2019-04-28T09:35:12.056Z,90.04
2019-04-28T09:38:18.762Z,91.03
2019-04-28T09:41:25.279Z,94.24
2019-04-28T09:44:31.693Z,93.39
2019-04-28T09:47:39.278Z,92.88
2019-04-28T09:50:48.736Z,92.06
2019-04-28T09:53:55.191Z,90.89
2019-04-28T09:57:01.962Z,92.99
2019-04-28T10:00:11.419Z,95.98
2019-04-28T10:03:17.998Z,90.37
2019-04-28T10:06:27.140Z,91.58
2019-04-28T10:09:33.717Z,93.56
2019-04-28T10:12:40.305Z,89.77
2019-04-28T10:15:46.702Z,91.80
2019-04-28T10:18:53.221Z,90.59
2019-04-28T10:22:00.940Z,91.74
2019-04-28T10:25:08.530Z,88.54
2019-04-28T10:28:15.093Z,88.95
2019-04-28T10:31:21.583Z,91.62
2019-04-28T10:34:28.059Z,89.77
2019-04-28T10:37:37.710Z,89.22
2019-04-28T10:40:59.479Z,89.84
2019-04-28T10:44:08.553Z,89.58
2019-04-28T10:47:14.884Z,88.06
2019-04-28T10:50:21.556Z,86.66
2019-04-28T10:53:28.051Z,87.21
2019-04-28T10:56:34.480Z,87.94
2019-04-28T10:59:41.013Z,89.57
2019-04-28T11:02:47.497Z,88.93
2019-04-28T11:05:54.891Z,90.98
2019-04-28T11:09:30.664Z,88.92
2019-04-28T11:12:34.925Z,88.70
2019-04-28T12:52:19.352Z,77.81
2019-04-28T12:55:25.843Z,77.35
2019-04-28T13:02:18.964Z,75.45
2019-04-28T13:05:25.341Z,73.69
2019-04-28T13:12:03.345Z,71.84
2019-04-28T13:15:10.097Z,69.44
2019-04-28T13:18:16.524Z,70.04
2019-04-28T13:21:22.945Z,69.49
2019-04-28T13:24:29.468Z,69.04
2019-04-28T13:27:35.883Z,71.65
2019-04-28T13:30:42.407Z,72.97
2019-04-28T13:33:56.284Z,71.10
2019-04-28T13:36:57.430Z,72.44
2019-04-28T13:40:10.020Z,66.60
2019-04-28T13:43:16.834Z,66.94
2019-04-28T13:46:23.337Z,67.75
2019-04-28T13:49:48.972Z,65.43
2019-04-28T13:52:55.641Z,66.26
2019-04-28T13:56:03.789Z,62.06
2019-04-28T13:59:15.570Z,63.31
2019-04-28T14:09:18.735Z,60.04
2019-04-28T14:12:28.716Z,60.80
2019-04-28T14:15:35.362Z,59.83
2019-04-28T14:18:43.956Z,58.32
2019-04-28T14:21:50.452Z,59.94
2019-04-28T14:24:56.883Z,58.11
2019-04-28T14:28:03.532Z,58.01
2019-04-28T14:31:09.983Z,57.90
2019-04-28T14:34:16.515Z,61.05
2019-04-28T14:37:22.996Z,59.90
2019-04-28T14:40:29.650Z,60.25
2019-04-28T14:43:36.242Z,60.74
2019-04-28T14:46:42.765Z,64.07
2019-04-28T14:49:49.284Z,60.29
2019-04-28T14:52:56.149Z,61.67
2019-04-28T14:56:02.540Z,60.60
2019-04-28T14:59:09.149Z,58.78
2019-04-28T15:02:40.460Z,59.34
2019-04-28T15:05:56.888Z,57.14
2019-04-28T15:09:23.474Z,57.20
2019-04-28T15:12:30.965Z,58.38
2019-04-28T15:15:37.637Z,58.03
2019-04-28T15:18:44.191Z,56.69
2019-04-28T15:21:50.729Z,57.30
2019-04-28T15:24:57.228Z,57.94
2019-04-28T15:28:03.687Z,57.76
2019-04-28T15:31:11.447Z,57.21
2019-04-28T15:34:17.949Z,59.62
2019-04-28T15:37:24.471Z,59.88
2019-04-28T15:40:30.993Z,60.28
2019-04-28T15:43:37.536Z,59.53
2019-04-28T15:46:44.058Z,60.22
2019-04-28T15:49:50.664Z,60.46
2019-04-28T15:52:57.163Z,60.21
2019-04-28T15:56:22.691Z,60.17
2019-04-28T15:59:29.667Z,60.20
2019-04-28T16:02:36.271Z,60.53
2019-04-28T16:05:42.743Z,60.38
2019-04-28T16:08:51.262Z,61.94
2019-04-28T16:11:57.454Z,60.46
2019-04-28T16:15:07.258Z,63.15
2019-04-28T16:18:12.646Z,63.15
2019-04-28T16:21:19.183Z,64.28
2019-04-28T16:24:25.635Z,64.25
2019-04-28T16:27:34.280Z,66.07
2019-04-28T16:30:40.758Z,65.72
2019-04-28T16:33:47.168Z,64.69
2019-04-28T16:36:53.697Z,64.31
2019-04-28T16:40:00.246Z,65.25
2019-04-28T16:43:07.285Z,65.92
2019-04-28T16:46:13.722Z,66.78
2019-04-28T16:49:20.242Z,66.57
2019-04-28T16:52:26.786Z,67.26
2019-04-28T16:55:40.623Z,67.29
2019-04-28T16:59:06.175Z,67.37
2019-04-28T17:02:18.586Z,67.35
2019-04-28T17:05:25.093Z,67.71
2019-04-28T17:08:31.691Z,69.61
2019-04-28T17:11:38.125Z,68.25
2019-04-28T17:14:44.587Z,68.10
2019-04-28T17:17:51.477Z,68.08
2019-04-28T17:20:58.018Z,69.16
2019-04-28T17:24:04.893Z,68.33
2019-04-28T17:27:11.439Z,70.58
2019-04-28T17:30:18.002Z,70.45
2019-04-28T17:33:24.387Z,73.26
2019-04-28T17:36:30.766Z,71.61
2019-04-28T17:39:37.312Z,73.27
2019-04-28T17:42:43.885Z,73.08
2019-04-28T17:45:55.679Z,73.16
